Time;durP1;ratioP1;P1;durP2;ratioP2;P2;SDS_P1;SDS_P2;PMS_P1;PMS_P2;Temp;Humidity;BMP_temperature;BMP_pressure;BME280_temperature;BME280_humidity;BME280_pressure;Samples;Min_cycle;Max_cycle;Signal;HPM_P1;HPM_P2
2022/07/28 00:02:06;;;;;;;5.47;1.77;;;12.80;99.90;;;;;;5076255;28;20044;-65
2022/07/28 00:04:32;;;;;;;4.13;1.98;;;12.80;99.90;;;;;;5076136;28;20470;-65
2022/07/28 00:06:58;;;;;;;3.78;1.90;;;12.70;99.90;;;;;;5074944;28;20040;-65
2022/07/28 00:09:24;;;;;;;2.63;1.70;;;12.60;99.90;;;;;;5076174;28;20052;-65
2022/07/28 00:11:50;;;;;;;3.92;1.90;;;12.70;99.90;;;;;;5076139;28;20097;-65
2022/07/28 00:14:15;;;;;;;5.72;3.03;;;12.60;99.90;;;;;;5076258;28;20036;-65
2022/07/28 00:16:41;;;;;;;2.10;1.80;;;12.40;99.90;;;;;;5074954;28;20044;-65
2022/07/28 00:19:07;;;;;;;3.55;2.03;;;12.50;99.90;;;;;;5076011;28;20043;-66
2022/07/28 00:21:33;;;;;;;3.40;2.00;;;12.50;99.90;;;;;;5076037;28;20112;-66
2022/07/28 00:23:58;;;;;;;5.35;2.22;;;12.50;99.90;;;;;;5075806;28;20048;-66
2022/07/28 00:26:24;;;;;;;2.60;2.40;;;12.30;99.90;;;;;;5076088;28;20123;-65
2022/07/28 00:28:50;;;;;;;3.15;2.00;;;12.40;99.90;;;;;;5074865;28;20123;-65
2022/07/28 00:31:16;;;;;;;4.78;2.05;;;12.30;99.90;;;;;;5075707;28;20440;-65
2022/07/28 00:33:42;;;;;;;2.97;1.80;;;12.30;99.90;;;;;;5075575;28;20075;-65
2022/07/28 00:36:08;;;;;;;4.75;1.65;;;12.40;99.90;;;;;;5075680;28;20045;-65
2022/07/28 00:38:34;;;;;;;2.83;1.75;;;12.30;99.90;;;;;;5074557;28;20040;-65
2022/07/28 00:41:09;;;;;;;3.58;1.67;;;12.30;99.90;;;;;;5074067;28;20040;-65
2022/07/28 00:43:46;;;;;;;2.13;1.50;;;12.30;99.90;;;;;;5075149;28;20051;-64
2022/07/28 00:46:12;;;;;;;4.80;1.65;;;12.30;99.90;;;;;;5075827;28;20094;-65
2022/07/28 00:48:41;;;;;;;5.63;1.88;;;12.30;99.90;;;;;;5057361;28;20471;-65
2022/07/28 00:51:08;;;;;;;3.85;1.95;;;12.30;99.90;;;;;;5074620;28;20045;-65
2022/07/28 00:53:35;;;;;;;3.58;1.67;;;12.30;99.90;;;;;;5075578;28;20089;-65
2022/07/28 00:56:01;;;;;;;2.65;1.85;;;12.30;99.90;;;;;;5074578;28;20032;-65
2022/07/28 00:58:27;;;;;;;4.40;1.98;;;12.30;99.90;;;;;;5075131;28;20593;-66
2022/07/28 01:00:54;;;;;;;3.15;2.33;;;12.10;99.90;;;;;;5074982;28;20460;-65
2022/07/28 01:03:19;;;;;;;2.15;2.00;;;12.10;99.90;;;;;;5075200;28;20029;-65
2022/07/28 01:05:57;;;;;;;4.93;1.88;;;12.20;99.90;;;;;;5075206;28;20036;-65
2022/07/28 01:08:35;;;;;;;3.00;1.98;;;12.30;99.90;;;;;;5074672;28;20049;-65
2022/07/28 01:11:07;;;;;;;4.07;2.20;;;12.40;99.90;;;;;;5074564;28;20102;-65
2022/07/28 01:13:48;;;;;;;4.03;1.70;;;12.40;99.90;;;;;;5075434;28;20040;-65
2022/07/28 01:16:14;;;;;;;3.00;1.63;;;12.30;99.90;;;;;;5074752;28;20489;-66
2022/07/28 01:18:56;;;;;;;3.63;1.70;;;12.30;99.90;;;;;;5075021;28;20093;-65
2022/07/28 01:21:27;;;;;;;2.83;1.75;;;12.30;99.90;;;;;;5074672;28;20047;-65
2022/07/28 01:24:08;;;;;;;2.40;1.83;;;12.30;99.90;;;;;;5073968;28;20522;-65
2022/07/28 01:27:02;;;;;;;3.35;1.83;;;12.20;99.90;;;;;;5074506;28;20048;-66
2022/07/28 01:30:05;;;;;;;2.42;2.00;;;12.30;99.90;;;;;;5052132;28;20048;-64
2022/07/28 01:32:38;;;;;;;2.28;1.58;;;12.20;99.90;;;;;;4954424;29;20134;-65
2022/07/28 01:35:14;;;;;;;4.75;1.60;;;12.20;99.90;;;;;;4954615;29;20051;-66
2022/07/28 01:37:46;;;;;;;3.40;1.85;;;12.20;99.90;;;;;;4938760;29;20109;-66
2022/07/28 01:40:16;;;;;;;2.50;1.92;;;12.20;99.90;;;;;;4954246;29;20047;-66
2022/07/28 01:42:48;;;;;;;2.50;2.30;;;12.20;99.90;;;;;;4954379;29;20055;-66
2022/07/28 01:45:15;;;;;;;2.85;2.40;;;12.20;99.90;;;;;;4938574;29;20094;-66
2022/07/28 01:47:44;;;;;;;4.05;2.53;;;12.10;99.90;;;;;;4954479;29;20113;-65
2022/07/28 01:50:12;;;;;;;2.58;2.20;;;12.10;99.90;;;;;;4954521;29;20042;-66
2022/07/28 01:52:41;;;;;;;4.57;2.25;;;12.00;99.90;;;;;;4953985;29;20083;-66
2022/07/28 01:55:08;;;;;;;3.65;2.80;;;12.10;99.90;;;;;;4954091;29;20043;-66
2022/07/28 01:57:35;;;;;;;2.70;2.40;;;12.00;99.90;;;;;;4953968;29;20078;-65
2022/07/28 02:00:03;;;;;;;4.38;2.60;;;11.90;99.90;;;;;;4954236;29;20066;-66
2022/07/28 02:02:32;;;;;;;5.35;2.72;;;12.00;99.90;;;;;;4954348;29;20051;-66
2022/07/28 02:04:59;;;;;;;4.13;2.58;;;12.00;99.90;;;;;;4958753;28;20043;-66
2022/07/28 02:07:27;;;;;;;3.20;2.45;;;12.00;99.90;;;;;;5013922;28;20056;-66
2022/07/28 02:09:55;;;;;;;13.95;3.03;;;11.90;99.90;;;;;;5073550;28;20056;-66
2022/07/28 02:12:23;;;;;;;5.40;2.47;;;11.90;99.90;;;;;;5073868;28;20054;-67
2022/07/28 02:14:50;;;;;;;4.78;2.60;;;11.80;99.90;;;;;;5074218;28;20475;-66
2022/07/28 02:17:24;;;;;;;5.55;2.75;;;11.80;99.90;;;;;;5072515;28;20079;-66
2022/07/28 02:19:51;;;;;;;4.45;3.00;;;11.80;99.90;;;;;;5072531;28;20040;-65
2022/07/28 02:22:19;;;;;;;2.90;2.65;;;11.80;99.90;;;;;;5073969;28;20033;-64
2022/07/28 02:24:46;;;;;;;3.30;2.55;;;11.80;99.90;;;;;;5073753;28;20055;-65
2022/07/28 02:27:25;;;;;;;3.47;2.53;;;11.80;99.90;;;;;;5073731;28;20040;-65
2022/07/28 02:30:15;;;;;;;4.10;2.35;;;11.80;99.90;;;;;;5073646;28;20090;-65
2022/07/28 02:32:51;;;;;;;4.15;2.10;;;11.80;99.90;;;;;;5073911;28;20044;-64
2022/07/28 02:35:32;;;;;;;4.15;2.30;;;11.80;99.90;;;;;;5075684;28;20041;-64
2022/07/28 02:38:06;;;;;;;3.08;2.20;;;11.80;99.90;;;;;;5078161;28;20438;-65
2022/07/28 02:40:36;;;;;;;5.35;2.42;;;11.80;99.90;;;;;;5077747;28;20044;-64
2022/07/28 02:43:06;;;;;;;2.67;2.10;;;11.80;99.90;;;;;;5077862;28;20116;-65
2022/07/28 02:45:34;;;;;;;3.25;2.58;;;11.80;99.90;;;;;;5076742;28;20046;-64
2022/07/28 02:48:04;;;;;;;3.78;2.47;;;11.80;99.90;;;;;;5077490;28;20119;-65
2022/07/28 02:50:30;;;;;;;2.20;1.92;;;11.70;99.90;;;;;;5077949;28;20038;-65
2022/07/28 02:52:59;;;;;;;3.13;2.17;;;11.70;99.90;;;;;;5076147;28;20067;-66
2022/07/28 02:55:26;;;;;;;4.18;2.13;;;11.70;99.90;;;;;;5076360;28;20056;-65
2022/07/28 02:57:53;;;;;;;2.90;2.28;;;11.60;99.90;;;;;;5077533;28;20357;-64
2022/07/28 03:00:19;;;;;;;3.80;2.00;;;11.70;99.90;;;;;;5077622;28;20032;-66
2022/07/28 03:02:45;;;;;;;2.40;1.70;;;11.70;99.90;;;;;;5077691;28;20041;-65
2022/07/28 03:05:13;;;;;;;4.22;2.08;;;11.80;99.90;;;;;;5077547;28;20045;-65
2022/07/28 03:07:40;;;;;;;2.65;2.25;;;11.90;99.90;;;;;;5077250;28;20044;-65
2022/07/28 03:10:08;;;;;;;2.97;2.05;;;11.90;99.90;;;;;;5077171;28;20060;-64
2022/07/28 03:12:34;;;;;;;6.40;2.20;;;12.00;99.90;;;;;;5077277;28;20422;-64
2022/07/28 03:14:59;;;;;;;2.70;2.28;;;12.00;99.90;;;;;;5077418;28;20033;-64
2022/07/28 03:17:26;;;;;;;3.33;2.55;;;12.10;99.90;;;;;;5077238;28;20040;-65
2022/07/28 03:19:51;;;;;;;5.18;3.42;;;12.10;99.90;;;;;;5076908;28;20044;-64
2022/07/28 03:22:17;;;;;;;2.17;1.98;;;12.10;99.90;;;;;;5075549;28;20417;-64
2022/07/28 03:24:51;;;;;;;3.78;2.55;;;12.10;99.90;;;;;;5077058;28;20032;-64
2022/07/28 03:27:21;;;;;;;2.50;1.80;;;12.20;99.90;;;;;;5076763;28;20044;-65
2022/07/28 03:29:56;;;;;;;5.35;2.60;;;12.20;99.90;;;;;;5077215;28;20037;-65
2022/07/28 03:32:24;;;;;;;5.40;2.25;;;12.20;99.90;;;;;;5076479;28;20043;-64
2022/07/28 03:34:51;;;;;;;5.25;2.92;;;12.20;99.90;;;;;;5076733;28;20115;-65
2022/07/28 03:37:22;;;;;;;5.07;2.17;;;12.30;99.90;;;;;;5076534;28;20072;-65
2022/07/28 03:39:51;;;;;;;2.55;2.30;;;12.40;99.90;;;;;;5076385;28;20032;-64
2022/07/28 03:42:18;;;;;;;2.38;2.17;;;12.50;99.90;;;;;;5076968;28;20037;-64
2022/07/28 03:44:47;;;;;;;2.88;2.60;;;12.50;99.90;;;;;;5076866;28;20036;-64
2022/07/28 03:47:14;;;;;;;3.28;2.80;;;12.40;99.90;;;;;;5075448;28;20491;-64
2022/07/28 03:49:39;;;;;;;4.18;2.50;;;12.50;99.90;;;;;;5076660;28;20044;-64
2022/07/28 03:52:05;;;;;;;3.40;2.60;;;12.40;99.90;;;;;;5076627;28;20075;-65
2022/07/28 03:54:31;;;;;;;4.43;2.58;;;12.50;99.90;;;;;;5076583;28;20125;-64
2022/07/28 03:56:56;;;;;;;3.95;2.65;;;12.50;99.90;;;;;;5076603;28;20046;-64
2022/07/28 03:59:22;;;;;;;4.40;2.55;;;12.60;99.90;;;;;;5076219;28;20032;-64
2022/07/28 04:01:48;;;;;;;4.15;2.58;;;12.60;99.90;;;;;;5075053;28;20033;-65
2022/07/28 04:04:13;;;;;;;3.25;2.60;;;12.60;99.90;;;;;;5069331;28;20029;-65
2022/07/28 04:06:39;;;;;;;3.75;2.63;;;12.70;99.90;;;;;;5073498;28;20044;-65
2022/07/28 04:09:05;;;;;;;4.75;3.10;;;12.80;99.90;;;;;;5075687;28;20063;-64
2022/07/28 04:11:31;;;;;;;3.72;2.53;;;12.80;99.90;;;;;;5076441;28;20051;-65
2022/07/28 04:13:56;;;;;;;3.25;2.72;;;12.70;99.90;;;;;;5074983;28;20044;-64
2022/07/28 04:16:22;;;;;;;4.00;2.67;;;12.70;99.90;;;;;;5074402;28;20533;-65
2022/07/28 04:18:48;;;;;;;4.88;2.78;;;12.80;99.90;;;;;;5075184;28;20040;-66
2022/07/28 04:21:14;;;;;;;5.50;3.67;;;12.80;99.90;;;;;;5076005;28;20085;-64
2022/07/28 04:23:39;;;;;;;3.33;2.53;;;12.90;99.90;;;;;;5076153;28;20079;-64
2022/07/28 04:26:05;;;;;;;3.25;2.72;;;12.90;99.90;;;;;;5076069;28;20417;-64
2022/07/28 04:28:31;;;;;;;5.82;2.67;;;12.90;99.90;;;;;;5076089;28;20048;-64
2022/07/28 04:30:56;;;;;;;6.55;2.63;;;13.00;99.90;;;;;;5075508;28;20033;-64
2022/07/28 04:33:22;;;;;;;4.57;2.80;;;13.00;99.90;;;;;;5075592;28;20490;-65
2022/07/28 04:35:50;;;;;;;4.03;2.90;;;13.00;99.90;;;;;;5074255;28;20041;-66
2022/07/28 04:38:16;;;;;;;4.45;2.60;;;13.00;99.90;;;;;;5075837;28;20127;-64
2022/07/28 04:40:42;;;;;;;4.35;2.60;;;13.00;99.90;;;;;;5075402;28;20036;-65
2022/07/28 04:43:09;;;;;;;6.00;2.90;;;13.00;99.90;;;;;;5075344;28;20036;-65
2022/07/28 04:45:35;;;;;;;4.85;2.53;;;13.00;99.90;;;;;;5075273;28;20734;-65
2022/07/28 04:48:01;;;;;;;4.70;2.72;;;13.00;99.90;;;;;;5075403;28;20128;-65
2022/07/28 04:50:27;;;;;;;4.30;2.60;;;12.90;99.90;;;;;;5075514;28;20491;-66
2022/07/28 04:52:53;;;;;;;8.10;2.75;;;12.90;99.90;;;;;;5075565;28;20491;-65
2022/07/28 04:55:19;;;;;;;4.47;2.80;;;12.90;99.90;;;;;;5075380;28;20533;-65
2022/07/28 04:57:44;;;;;;;3.30;2.70;;;12.80;99.90;;;;;;5074222;28;20037;-65
2022/07/28 05:00:12;;;;;;;7.03;2.60;;;12.80;99.90;;;;;;5074289;28;20037;-65
2022/07/28 05:02:38;;;;;;;4.78;2.30;;;12.80;99.90;;;;;;5073440;28;20048;-65
2022/07/28 05:05:04;;;;;;;3.90;2.72;;;12.80;99.90;;;;;;5073532;28;20040;-65
2022/07/28 05:07:30;;;;;;;2.63;2.30;;;12.80;99.90;;;;;;5073597;28;20047;-65
2022/07/28 05:09:55;;;;;;;6.35;2.70;;;12.80;99.90;;;;;;5074499;28;20411;-65
2022/07/28 05:12:21;;;;;;;3.15;2.53;;;12.90;99.90;;;;;;5074738;28;20076;-64
2022/07/28 05:14:47;;;;;;;4.32;2.72;;;12.90;99.90;;;;;;5074701;28;20116;-65
2022/07/28 05:17:13;;;;;;;3.50;2.50;;;13.00;99.90;;;;;;5074321;28;20493;-66
2022/07/28 05:19:39;;;;;;;8.75;2.60;;;13.00;99.90;;;;;;5074426;28;20045;-64
2022/07/28 05:22:04;;;;;;;5.07;2.75;;;13.10;99.90;;;;;;5074481;28;20051;-65
2022/07/28 05:24:30;;;;;;;5.57;3.00;;;13.10;99.90;;;;;;5074471;28;20041;-64
2022/07/28 05:26:56;;;;;;;6.63;3.17;;;13.20;99.90;;;;;;5074441;28;20040;-64
2022/07/28 05:29:22;;;;;;;3.95;2.70;;;13.20;99.90;;;;;;5074406;28;20051;-65
2022/07/28 05:31:47;;;;;;;4.30;2.80;;;13.30;99.90;;;;;;5074400;28;20116;-65
2022/07/28 05:34:13;;;;;;;5.25;3.00;;;13.40;99.90;;;;;;5074265;28;20086;-65
2022/07/28 05:36:39;;;;;;;5.75;3.03;;;13.40;99.90;;;;;;5074155;28;20123;-65
2022/07/28 05:39:05;;;;;;;4.60;2.70;;;13.40;99.90;;;;;;5074170;28;20127;-65
2022/07/28 05:41:30;;;;;;;4.85;2.65;;;13.50;99.90;;;;;;5074230;28;20032;-64
2022/07/28 05:43:57;;;;;;;9.55;3.10;;;13.60;99.90;;;;;;5074150;28;20467;-64
2022/07/28 05:46:23;;;;;;;3.85;2.92;;;13.70;99.90;;;;;;5074500;28;20072;-64
2022/07/28 05:48:49;;;;;;;4.15;2.40;;;13.80;99.90;;;;;;5073887;28;20067;-65
2022/07/28 05:51:14;;;;;;;8.20;3.10;;;13.90;99.90;;;;;;5073055;28;20048;-64
2022/07/28 05:53:40;;;;;;;4.97;2.92;;;13.90;99.90;;;;;;5073952;28;20040;-65
2022/07/28 05:56:05;;;;;;;6.53;3.10;;;14.10;99.90;;;;;;5073935;28;20040;-65
2022/07/28 05:58:31;;;;;;;3.08;2.58;;;14.10;99.90;;;;;;5073970;28;20037;-65
2022/07/28 06:00:58;;;;;;;8.00;3.08;;;14.10;99.90;;;;;;5074017;28;20090;-65
2022/07/28 06:03:24;;;;;;;5.47;2.92;;;14.20;99.90;;;;;;5072742;28;20081;-65
2022/07/28 06:05:54;;;;;;;4.30;2.60;;;14.30;99.90;;;;;;5073931;28;20119;-65
2022/07/28 06:08:19;;;;;;;5.88;2.58;;;14.30;99.90;;;;;;5072601;28;20133;-65
2022/07/28 06:13:29;;;;;;;4.97;2.53;;;14.40;99.90;;;;;;5073841;28;20040;-65
2022/07/28 06:15:55;;;;;;;4.65;2.10;;;14.50;99.90;;;;;;5073668;28;20044;-65
2022/07/28 06:18:21;;;;;;;5.97;2.13;;;14.60;99.90;;;;;;5073930;28;20400;-65
2022/07/28 06:20:47;;;;;;;3.30;1.73;;;14.60;99.90;;;;;;5073785;28;20375;-65
2022/07/28 06:23:16;;;;;;;2.92;1.60;;;14.70;99.90;;;;;;5073741;28;20037;-65
2022/07/28 06:25:41;;;;;;;5.03;1.70;;;14.80;99.90;;;;;;5073716;28;20045;-65
2022/07/28 06:28:07;;;;;;;3.30;1.88;;;14.80;99.90;;;;;;5073699;28;20040;-65
2022/07/28 06:30:33;;;;;;;3.33;1.45;;;14.90;99.90;;;;;;5073457;28;20037;-65
2022/07/28 06:32:58;;;;;;;5.28;2.08;;;14.90;99.90;;;;;;5073641;28;20072;-65
2022/07/28 06:35:24;;;;;;;3.75;1.70;;;15.00;99.90;;;;;;5073471;28;20510;-64
2022/07/28 06:37:51;;;;;;;5.45;1.80;;;15.00;99.90;;;;;;5073616;28;20138;-65
2022/07/28 06:40:18;;;;;;;2.17;1.38;;;15.10;99.90;;;;;;5073519;28;20421;-65
2022/07/28 06:42:45;;;;;;;3.05;1.50;;;15.10;99.90;;;;;;5073498;28;20036;-65
2022/07/28 06:45:12;;;;;;;8.18;1.55;;;15.20;99.90;;;;;;5073574;28;20105;-65
2022/07/28 06:47:38;;;;;;;3.42;1.38;;;15.20;99.90;;;;;;5073398;28;20082;-65
2022/07/28 06:50:05;;;;;;;4.07;1.10;;;15.20;99.90;;;;;;5073419;28;20037;-65
2022/07/28 06:52:32;;;;;;;4.68;1.40;;;15.30;99.90;;;;;;5073688;28;20048;-65
2022/07/28 06:54:59;;;;;;;2.83;1.10;;;15.30;99.90;;;;;;5073659;28;20094;-61
2022/07/28 06:57:25;;;;;;;4.60;1.50;;;15.30;99.90;;;;;;5072285;28;20496;-65
2022/07/28 06:59:51;;;;;;;3.80;0.85;;;15.30;99.90;;;;;;5073272;28;20120;-64
2022/07/28 07:02:17;;;;;;;3.22;1.20;;;15.30;99.90;;;;;;5073376;28;20067;-64
2022/07/28 07:04:43;;;;;;;2.22;0.95;;;15.20;99.90;;;;;;5073142;28;20083;-64
2022/07/28 07:07:09;;;;;;;2.45;1.00;;;15.30;99.90;;;;;;5073083;28;20048;-64
2022/07/28 07:09:35;;;;;;;4.18;1.17;;;15.20;99.90;;;;;;5072906;28;20059;-64
2022/07/28 07:12:01;;;;;;;5.85;1.30;;;15.20;99.90;;;;;;5073104;28;20063;-64
2022/07/28 07:14:27;;;;;;;1.90;1.27;;;15.30;99.90;;;;;;5073218;28;20376;-65
2022/07/28 07:16:55;;;;;;;4.53;1.85;;;15.20;99.90;;;;;;5073138;28;20041;-65
2022/07/28 07:19:21;;;;;;;7.65;2.03;;;15.20;99.90;;;;;;5072894;28;20468;-64
2022/07/28 07:21:47;;;;;;;5.53;1.85;;;15.20;99.90;;;;;;5072634;28;20032;-65
2022/07/28 07:24:13;;;;;;;8.25;2.15;;;15.10;99.90;;;;;;5076737;28;20119;-66
2022/07/28 07:26:39;;;;;;;5.88;1.98;;;15.20;99.90;;;;;;5076830;28;20071;-65
2022/07/28 07:29:06;;;;;;;6.93;2.60;;;15.20;99.90;;;;;;5076763;28;20052;-65
2022/07/28 07:31:33;;;;;;;6.85;2.97;;;15.20;99.90;;;;;;5076659;28;20055;-65
2022/07/28 07:33:59;;;;;;;8.15;2.95;;;15.20;99.90;;;;;;5076285;28;20479;-64
2022/07/28 07:36:24;;;;;;;7.57;2.80;;;15.20;99.90;;;;;;5076289;28;20049;-65
2022/07/28 07:38:50;;;;;;;10.63;3.00;;;15.20;99.90;;;;;;5076608;28;20124;-66
2022/07/28 07:41:17;;;;;;;10.73;3.88;;;15.20;99.90;;;;;;5076738;28;20079;-65
2022/07/28 07:43:44;;;;;;;4.63;2.30;;;15.30;99.90;;;;;;5076591;28;20047;-65
2022/07/28 07:46:09;;;;;;;4.95;2.47;;;15.30;99.90;;;;;;5075245;28;20048;-65
2022/07/28 07:48:35;;;;;;;4.82;2.42;;;15.20;99.90;;;;;;5076241;28;20077;-65
2022/07/28 07:51:01;;;;;;;5.90;2.00;;;15.30;99.90;;;;;;5074883;28;20098;-65
2022/07/28 07:53:26;;;;;;;5.07;1.92;;;15.40;99.90;;;;;;5076175;28;20390;-64
2022/07/28 07:55:52;;;;;;;4.95;1.65;;;15.40;99.90;;;;;;5075928;28;20105;-65
2022/07/28 07:58:18;;;;;;;3.90;1.88;;;15.40;99.90;;;;;;5075806;28;20044;-65
2022/07/28 08:00:44;;;;;;;8.50;2.78;;;15.50;99.90;;;;;;5076052;28;20040;-64
2022/07/28 08:03:09;;;;;;;3.60;1.30;;;15.50;99.90;;;;;;5076074;28;20036;-64
2022/07/28 08:05:35;;;;;;;5.72;1.50;;;15.50;99.90;;;;;;5074456;28;20037;-63
2022/07/28 08:08:01;;;;;;;8.48;1.85;;;15.60;99.90;;;;;;5076257;28;20155;-63
2022/07/28 08:10:26;;;;;;;7.60;1.30;;;15.70;99.90;;;;;;5075581;28;20063;-64
2022/07/28 08:12:52;;;;;;;2.83;1.17;;;15.60;99.90;;;;;;5075862;28;20036;-65
2022/07/28 08:15:18;;;;;;;5.28;1.30;;;15.70;99.90;;;;;;5075819;28;20051;-65
2022/07/28 08:17:43;;;;;;;4.85;1.40;;;15.70;99.90;;;;;;5075722;28;20044;-65
2022/07/28 08:20:09;;;;;;;6.35;1.45;;;15.70;99.90;;;;;;5075492;28;20040;-65
2022/07/28 08:22:56;;;;;;;3.25;1.10;;;15.80;99.90;;;;;;5075755;28;20040;-65
2022/07/28 08:25:22;;;;;;;4.40;1.38;;;15.90;99.90;;;;;;5075709;28;20036;-64
2022/07/28 08:27:48;;;;;;;4.50;1.38;;;15.80;99.90;;;;;;5075763;28;20491;-65
2022/07/28 08:30:15;;;;;;;7.07;2.38;;;15.80;99.90;;;;;;5075536;28;20067;-64
2022/07/28 08:32:41;;;;;;;6.45;1.75;;;15.90;99.90;;;;;;5075388;28;20036;-64
2022/07/28 08:35:07;;;;;;;4.63;1.40;;;15.90;99.90;;;;;;5075446;28;20442;-63
2022/07/28 08:37:32;;;;;;;3.67;1.33;;;16.10;99.90;;;;;;5075343;28;20048;-64
2022/07/28 08:39:58;;;;;;;2.45;1.17;;;16.10;99.90;;;;;;5075363;28;20037;-63
2022/07/28 08:42:37;;;;;;;4.70;1.20;;;16.20;99.90;;;;;;5075365;28;20063;-63
2022/07/28 08:45:06;;;;;;;1.90;1.05;;;16.30;99.90;;;;;;5075355;28;20055;-64
2022/07/28 08:47:34;;;;;;;8.40;1.58;;;16.40;99.90;;;;;;5075251;28;20097;-64
2022/07/28 08:50:00;;;;;;;6.72;1.42;;;16.50;99.90;;;;;;5075226;28;20047;-63
2022/07/28 08:52:30;;;;;;;5.82;2.08;;;16.70;99.90;;;;;;5074127;28;20054;-63
2022/07/28 08:54:57;;;;;;;4.82;1.00;;;16.70;99.90;;;;;;5074814;28;20040;-63
2022/07/28 08:57:30;;;;;;;3.47;1.10;;;16.70;99.90;;;;;;5073759;28;20496;-63
2022/07/28 08:59:57;;;;;;;7.97;1.23;;;16.80;99.90;;;;;;5075059;28;20036;-64
2022/07/28 09:02:27;;;;;;;3.58;0.90;;;16.90;99.90;;;;;;5073599;28;20475;-64
2022/07/28 09:04:58;;;;;;;4.22;0.90;;;17.10;99.90;;;;;;5074646;28;20502;-63
2022/07/28 09:07:25;;;;;;;3.80;0.95;;;17.20;99.90;;;;;;5074709;28;20040;-63
2022/07/28 09:09:50;;;;;;;4.10;1.38;;;17.30;99.90;;;;;;5074591;28;20095;-65
2022/07/28 09:12:16;;;;;;;3.65;0.90;;;17.40;99.90;;;;;;5074863;28;20137;-62
2022/07/28 09:14:42;;;;;;;4.28;1.10;;;17.50;99.90;;;;;;5074703;28;20087;-63
2022/07/28 09:17:09;;;;;;;3.65;0.70;;;17.60;99.90;;;;;;5073641;28;20076;-63
2022/07/28 09:19:36;;;;;;;3.47;0.85;;;17.70;99.90;;;;;;5074437;28;20041;-62
2022/07/28 09:22:02;;;;;;;3.55;0.80;;;17.80;99.90;;;;;;5074477;28;20037;-62
2022/07/28 09:24:36;;;;;;;2.75;0.80;;;18.00;99.90;;;;;;5074532;28;20040;-62
2022/07/28 09:27:08;;;;;;;1.13;0.68;;;18.20;99.90;;;;;;5074541;28;20040;-63
2022/07/28 09:29:35;;;;;;;3.20;0.90;;;18.40;99.90;;;;;;5074494;28;20036;-63
2022/07/28 09:32:01;;;;;;;2.22;1.08;;;18.40;99.90;;;;;;5074288;28;20101;-62
2022/07/28 09:34:27;;;;;;;2.35;0.77;;;18.40;99.90;;;;;;5074349;28;20044;-64
2022/07/28 09:36:52;;;;;;;4.88;0.85;;;18.70;99.90;;;;;;5074188;28;20045;-63
2022/07/28 09:39:32;;;;;;;4.45;0.70;;;19.40;99.90;;;;;;5074259;28;20032;-63
2022/07/28 09:41:58;;;;;;;4.10;0.85;;;19.50;99.90;;;;;;5074230;28;20083;-62
2022/07/28 09:44:26;;;;;;;2.20;0.75;;;19.80;99.90;;;;;;5072622;28;20047;-63
2022/07/28 09:46:52;;;;;;;1.58;0.80;;;20.00;99.90;;;;;;5074086;28;20451;-63
2022/07/28 09:49:18;;;;;;;5.78;1.23;;;20.40;99.90;;;;;;5074063;28;20040;-63
2022/07/28 09:52:01;;;;;;;4.60;1.30;;;20.70;99.90;;;;;;5074130;28;20541;-63
2022/07/28 09:54:26;;;;;;;3.00;0.88;;;21.10;99.90;;;;;;5073998;28;20043;-63
2022/07/28 09:56:52;;;;;;;2.25;1.00;;;21.30;99.90;;;;;;5073999;28;20040;-64
2022/07/28 09:59:18;;;;;;;3.45;1.10;;;21.20;99.90;;;;;;5072142;28;20081;-64
2022/07/28 10:01:51;;;;;;;3.42;1.10;;;21.40;99.90;;;;;;5073930;28;20045;-63
2022/07/28 10:04:29;;;;;;;2.25;1.20;;;21.60;99.90;;;;;;5073683;28;20505;-64
2022/07/28 10:07:10;;;;;;;3.08;1.23;;;21.30;99.90;;;;;;5073921;28;20048;-63
2022/07/28 10:09:37;;;;;;;2.90;1.00;;;21.00;99.90;;;;;;5073353;28;20110;-64
2022/07/28 10:12:21;;;;;;;10.00;4.78;;;21.10;99.90;;;;;;5073738;28;20041;-64
2022/07/28 10:14:49;;;;;;;2.08;0.85;;;21.30;99.90;;;;;;5073848;28;20111;-64
2022/07/28 10:17:32;;;;;;;3.03;1.00;;;21.00;99.90;;;;;;5073738;28;20105;-64
2022/07/28 10:20:00;;;;;;;3.38;1.60;;;20.50;99.90;;;;;;5073828;28;20036;-63
2022/07/28 10:22:30;;;;;;;1.05;0.82;;;20.40;99.90;;;;;;5073731;28;20116;-64
2022/07/28 10:24:59;;;;;;;4.05;0.90;;;20.10;99.90;;;;;;5055500;28;20044;-65
2022/07/28 10:27:25;;;;;;;2.72;1.10;;;19.80;99.90;;;;;;5073512;28;20049;-64
2022/07/28 10:30:00;;;;;;;3.40;1.00;;;19.70;99.90;;;;;;5073741;28;20041;-64
2022/07/28 10:32:30;;;;;;;3.10;0.90;;;19.60;99.90;;;;;;5073718;28;20041;-64
2022/07/28 10:35:03;;;;;;;1.85;0.60;;;19.50;99.90;;;;;;5073558;28;20128;-64
2022/07/28 10:37:32;;;;;;;2.95;0.90;;;19.50;99.90;;;;;;5073550;28;20050;-64
2022/07/28 10:40:05;;;;;;;3.92;1.30;;;19.80;99.90;;;;;;5073678;28;20044;-64
2022/07/28 10:42:31;;;;;;;2.58;1.00;;;20.20;99.90;;;;;;5073453;28;20479;-64
2022/07/28 10:44:58;;;;;;;3.42;1.17;;;20.20;99.90;;;;;;5073249;28;20037;-64
2022/07/28 10:47:25;;;;;;;7.57;1.05;;;20.50;99.90;;;;;;5073211;28;20036;-64
2022/07/28 10:49:51;;;;;;;1.48;0.60;;;20.70;99.90;;;;;;5071744;28;20056;-63
2022/07/28 10:52:18;;;;;;;1.50;0.60;;;20.90;99.90;;;;;;5073468;28;20565;-65
2022/07/28 10:55:21;;;;;;;2.22;1.30;;;21.20;99.90;;;;;;5073346;28;20072;-64
2022/07/28 10:58:25;;;;;;;4.20;0.80;;;21.40;99.90;;;;;;5075863;28;20044;-63
2022/07/28 11:00:52;;;;;;;3.13;1.08;;;21.50;99.90;;;;;;5076819;28;20487;-64
2022/07/28 11:03:45;;;;;;;4.45;1.55;;;21.50;99.90;;;;;;5077243;28;20033;-64
2022/07/28 11:06:38;;;;;;;1.38;0.80;;;21.50;99.90;;;;;;5077191;28;20085;-64
2022/07/28 11:09:16;;;;;;;1.92;0.93;;;21.30;99.90;;;;;;5076868;28;20041;-63
2022/07/28 11:11:57;;;;;;;1.80;0.70;;;20.90;99.90;;;;;;5076865;28;20118;-64
2022/07/28 11:14:28;;;;;;;2.65;1.00;;;20.90;99.90;;;;;;5077085;28;20055;-63
2022/07/28 11:16:59;;;;;;;2.55;0.85;;;20.80;99.90;;;;;;5075869;28;20059;-64
2022/07/28 11:19:27;;;;;;;3.03;0.82;;;20.60;99.90;;;;;;5076665;28;20123;-64
2022/07/28 11:22:29;;;;;;;4.30;0.90;;;20.50;99.90;;;;;;5077212;28;20045;-64
2022/07/28 11:25:03;;;;;;;1.92;0.70;;;20.40;99.90;;;;;;5034755;28;20396;-65
2022/07/28 11:27:50;;;;;;;1.52;0.80;;;20.20;99.90;;;;;;5034933;28;20057;-64
2022/07/28 11:30:26;;;;;;;1.85;0.75;;;20.00;99.90;;;;;;5034633;28;20124;-64
2022/07/28 11:32:54;;;;;;;1.45;0.75;;;20.00;99.90;;;;;;5034559;28;20060;-64
2022/07/28 11:35:22;;;;;;;1.25;0.70;;;19.80;99.90;;;;;;5034657;28;20049;-64
2022/07/28 11:38:07;;;;;;;5.10;1.25;;;19.60;99.90;;;;;;5017765;28;20128;-64
2022/07/28 11:40:44;;;;;;;2.33;0.90;;;19.60;99.90;;;;;;5034405;28;20052;-64
2022/07/28 11:43:22;;;;;;;1.40;0.55;;;19.50;99.90;;;;;;5034467;28;20443;-64
2022/07/28 11:46:08;;;;;;;2.72;0.68;;;19.60;99.90;;;;;;5017504;28;20053;-64
2022/07/28 11:48:35;;;;;;;5.57;0.80;;;19.60;99.90;;;;;;5033953;28;20443;-64
2022/07/28 11:51:03;;;;;;;6.65;1.42;;;19.90;99.90;;;;;;5034141;28;20125;-64
2022/07/28 11:53:48;;;;;;;3.63;0.82;;;19.70;99.90;;;;;;5034210;28;20168;-64
2022/07/28 11:56:36;;;;;;;2.92;0.60;;;19.80;99.90;;;;;;5034161;28;20041;-64
2022/07/28 11:59:05;;;;;;;1.90;0.68;;;19.80;99.90;;;;;;5017485;28;20053;-65
2022/07/28 12:01:32;;;;;;;2.50;0.75;;;19.90;99.90;;;;;;5074129;28;20049;-64
2022/07/28 12:03:58;;;;;;;3.65;0.88;;;19.90;99.90;;;;;;5076166;28;20032;-65
2022/07/28 12:06:33;;;;;;;3.05;0.70;;;19.90;99.90;;;;;;5076097;28;20036;-64
2022/07/28 12:09:01;;;;;;;3.95;0.70;;;19.90;99.90;;;;;;5075600;28;20040;-63
2022/07/28 12:11:40;;;;;;;1.97;1.00;;;19.80;99.90;;;;;;5076075;28;20102;-64
2022/07/28 12:14:14;;;;;;;3.70;1.15;;;19.80;99.90;;;;;;5075910;28;20267;-64
2022/07/28 12:16:43;;;;;;;2.42;0.65;;;19.90;99.90;;;;;;5075865;28;20435;-63
2022/07/28 12:19:09;;;;;;;;;;;20.00;99.90;;;;;;5076294;28;20079;-65
2022/07/28 12:21:46;;;;;;;1.55;0.90;;;19.90;99.90;;;;;;5074476;28;20413;-64
2022/07/28 12:24:28;;;;;;;0.95;0.70;;;20.00;99.90;;;;;;5075604;28;20036;-64
2022/07/28 12:26:54;;;;;;;4.25;1.02;;;20.20;99.90;;;;;;5075587;28;20474;-64
2022/07/28 12:29:20;;;;;;;3.78;0.60;;;20.30;99.90;;;;;;5075714;28;20394;-64
2022/07/28 12:31:54;;;;;;;0.88;0.52;;;20.50;99.90;;;;;;5075520;28;20119;-64
2022/07/28 12:34:20;;;;;;;1.75;0.50;;;20.60;99.90;;;;;;5075385;28;20086;-65
2022/07/28 12:36:46;;;;;;;2.85;0.93;;;20.90;99.90;;;;;;5075471;28;20040;-65
2022/07/28 12:39:12;;;;;;;1.38;0.63;;;21.10;99.90;;;;;;5075650;28;20032;-64
2022/07/28 12:41:38;;;;;;;2.33;0.70;;;21.30;99.90;;;;;;5075311;28;20077;-64
2022/07/28 12:44:04;;;;;;;3.22;0.70;;;21.50;99.90;;;;;;5075389;28;20124;-64
2022/07/28 12:46:31;;;;;;;2.67;0.93;;;21.60;99.90;;;;;;5074005;28;20059;-64
2022/07/28 12:48:59;;;;;;;1.27;0.68;;;21.90;99.90;;;;;;5075244;28;20041;-64
2022/07/28 12:51:41;;;;;;;2.53;0.63;;;21.80;99.90;;;;;;5075182;28;20086;-64
2022/07/28 12:54:09;;;;;;;3.35;1.02;;;21.70;99.90;;;;;;5075234;28;20072;-64
2022/07/28 12:56:51;;;;;;;0.90;0.80;;;21.60;99.90;;;;;;5075104;28;20093;-64
2022/07/28 12:59:18;;;;;;;2.35;0.70;;;21.70;99.90;;;;;;5074745;28;20032;-63
2022/07/28 13:01:50;;;;;;;2.55;0.80;;;21.50;99.90;;;;;;5075028;28;20040;-64